createdAt,value
2017-11-25T10:58:07.344Z,5.10
2017-11-25T11:00:35.599Z,5.30
2017-11-25T11:03:03.065Z,7.20
2017-11-25T11:05:31.335Z,5.30
2017-11-25T11:07:59.595Z,5.87
2017-11-25T11:10:27.066Z,4.67
2017-11-25T11:12:54.552Z,6.33
2017-11-25T11:15:22.785Z,5.90
2017-11-25T11:17:50.269Z,6.03
2017-11-25T11:20:18.508Z,5.63
2017-11-25T11:22:46.000Z,5.33
2017-11-25T11:25:14.361Z,5.07
2017-11-25T11:27:41.853Z,7.57
2017-11-25T11:30:10.096Z,7.53
2017-11-25T11:32:37.573Z,5.07
2017-11-25T11:35:05.127Z,4.80
2017-11-25T11:37:33.417Z,6.03
2017-11-25T11:40:01.672Z,4.50
2017-11-25T11:42:29.176Z,6.97
2017-11-25T11:44:56.769Z,4.83
2017-11-25T11:47:24.319Z,5.80
2017-11-25T11:49:52.201Z,5.20
2017-11-25T11:52:19.699Z,5.50
2017-11-25T11:54:47.932Z,5.00
2017-11-25T11:57:15.458Z,4.73
2017-11-25T11:59:42.988Z,4.73
2017-11-25T12:02:11.236Z,5.93
2017-11-25T12:04:38.726Z,6.63
2017-11-25T12:07:06.985Z,5.60
2017-11-25T12:09:34.509Z,5.57
2017-11-25T12:12:01.990Z,6.40
2017-11-25T12:14:29.471Z,6.57
2017-11-25T12:16:56.940Z,7.30
2017-11-25T12:19:25.168Z,9.63
2017-11-25T12:21:52.652Z,10.23
2017-11-25T12:24:21.627Z,8.97
2017-11-25T12:26:49.122Z,7.00
2017-11-25T12:29:17.391Z,8.33
2017-11-25T12:31:45.692Z,7.30
2017-11-25T12:34:13.173Z,6.90
2017-11-25T12:36:40.672Z,8.10
2017-11-25T12:39:08.161Z,11.00
2017-11-25T12:41:36.393Z,9.87
2017-11-25T12:44:03.884Z,10.63
2017-11-25T12:46:32.124Z,10.20
2017-11-25T12:48:59.609Z,9.80
2017-11-25T12:51:27.085Z,9.17
2017-11-25T12:53:55.336Z,9.37
2017-11-25T12:56:24.324Z,10.60
2017-11-25T12:58:51.801Z,8.13
2017-11-25T13:01:20.117Z,8.63
2017-11-25T13:03:47.593Z,12.80
2017-11-25T13:06:15.086Z,12.30
2017-11-25T13:08:42.551Z,8.37
2017-11-25T13:11:10.868Z,9.97
2017-11-25T13:13:38.358Z,9.23
2017-11-25T13:16:05.841Z,14.47
2017-11-25T13:18:33.323Z,9.83
2017-11-25T13:21:01.556Z,7.23
2017-11-25T13:23:29.156Z,17.83
2017-11-25T13:25:57.444Z,9.77
2017-11-25T13:28:25.081Z,14.60
2017-11-25T13:30:52.582Z,12.13
2017-11-25T13:33:20.061Z,7.93
2017-11-25T13:35:47.559Z,8.83
2017-11-25T13:38:15.817Z,9.13
2017-11-25T13:40:43.341Z,14.77
2017-11-25T13:43:10.825Z,8.93
2017-11-25T13:45:38.308Z,10.53
2017-11-25T13:48:06.568Z,14.93
2017-11-25T13:50:34.806Z,9.47
2017-11-25T13:53:02.300Z,18.50
2017-11-25T13:55:29.776Z,10.50
2017-11-25T13:57:57.282Z,9.87
2017-11-25T14:00:25.639Z,9.07
2017-11-25T14:02:53.956Z,11.03
2017-11-25T14:05:21.482Z,9.10
2017-11-25T14:07:49.009Z,11.33
2017-11-25T14:10:16.535Z,10.00
2017-11-25T14:12:44.062Z,9.43
2017-11-25T14:15:12.467Z,9.13
2017-11-25T14:17:39.961Z,11.43
2017-11-25T14:20:07.472Z,13.23
2017-11-25T14:22:34.977Z,12.60
2017-11-25T14:25:02.566Z,12.20
2017-11-25T14:27:30.847Z,13.67
2017-11-25T14:29:59.128Z,12.50
2017-11-25T14:32:27.395Z,12.33
2017-11-25T14:34:55.665Z,13.77
2017-11-25T14:37:23.186Z,15.07
2017-11-25T14:39:50.796Z,12.23
2017-11-25T14:42:19.068Z,15.63
2017-11-25T14:44:47.335Z,12.53
2017-11-25T14:47:14.808Z,13.90
2017-11-25T14:49:43.083Z,13.90
2017-11-25T14:52:11.341Z,13.43
2017-11-25T14:54:38.872Z,11.40
2017-11-25T14:57:06.406Z,19.83
2017-11-25T14:59:33.908Z,38.23
2017-11-25T15:02:01.425Z,12.43
2017-11-25T15:04:28.947Z,14.43
2017-11-25T15:06:57.221Z,14.43
2017-11-25T15:09:24.718Z,14.30
2017-11-25T15:11:52.244Z,13.63
2017-11-25T15:14:20.580Z,39.10
2017-11-25T15:16:48.105Z,16.50
2017-11-25T15:19:15.606Z,16.77
2017-11-25T15:21:43.093Z,14.90
2017-11-25T15:24:10.567Z,14.57
2017-11-25T15:26:38.820Z,14.90
2017-11-25T15:29:06.352Z,15.67
2017-11-25T15:31:33.877Z,14.87
2017-11-25T15:34:01.365Z,20.67
2017-11-25T15:36:28.842Z,31.23
2017-11-25T15:38:56.329Z,27.03
2017-11-25T15:41:24.564Z,17.70
2017-11-25T15:43:52.052Z,19.47
2017-11-25T15:46:19.545Z,22.30
2017-11-25T15:48:47.069Z,54.27
2017-11-25T15:51:14.552Z,24.30
2017-11-25T15:53:42.788Z,28.53
2017-11-25T15:56:10.287Z,24.73
2017-11-25T15:58:38.535Z,41.77
2017-11-25T16:01:06.805Z,26.47
2017-11-25T16:03:34.280Z,18.97
2017-11-25T16:06:02.536Z,28.20
2017-11-25T16:08:30.010Z,17.90
2017-11-25T16:10:57.522Z,17.50
2017-11-25T16:13:25.075Z,19.00
2017-11-25T16:15:52.576Z,18.43
2017-11-25T16:18:21.622Z,53.93
2017-11-25T16:20:49.182Z,19.03
2017-11-25T16:23:16.680Z,19.93
2017-11-25T16:25:44.159Z,21.67
2017-11-25T16:28:11.645Z,38.63
2017-11-25T16:30:39.132Z,23.43
2017-11-25T16:33:06.611Z,16.80
2017-11-25T16:35:34.103Z,18.93
2017-11-25T16:38:02.341Z,26.60
2017-11-25T16:40:29.832Z,18.40
2017-11-25T16:42:58.080Z,19.43
2017-11-25T16:45:25.549Z,23.30
2017-11-25T16:47:53.041Z,18.90
2017-11-25T16:50:21.278Z,22.30
2017-11-25T16:52:48.777Z,21.43
2017-11-25T16:55:16.360Z,10.93
2017-11-25T16:57:43.848Z,15.97
2017-11-25T17:00:11.324Z,7.97
2017-11-25T17:02:38.897Z,9.50
2017-11-25T17:05:07.156Z,10.13
2017-11-25T17:07:34.632Z,11.53
2017-11-25T17:10:02.121Z,10.60
2017-11-25T17:12:29.593Z,10.17
2017-11-25T17:14:57.087Z,10.97
2017-11-25T17:17:24.569Z,9.73
2017-11-25T17:19:52.801Z,7.27
2017-11-25T17:22:20.341Z,5.47
2017-11-25T17:24:47.807Z,7.70
2017-11-25T17:27:15.292Z,5.70
2017-11-25T17:29:42.776Z,5.07
2017-11-25T17:32:11.039Z,7.13
2017-11-25T17:34:38.514Z,5.70
2017-11-25T17:37:06.757Z,7.43
2017-11-25T17:39:34.244Z,5.87
2017-11-25T17:42:02.484Z,5.10
2017-11-25T17:44:29.970Z,5.43
2017-11-25T17:46:57.436Z,9.33
2017-11-25T17:49:25.685Z,6.93
2017-11-25T17:51:53.176Z,6.80
2017-11-25T17:54:21.433Z,7.03
2017-11-25T17:56:48.965Z,7.53
2017-11-25T17:59:16.437Z,5.60
2017-11-25T18:01:43.921Z,6.03
2017-11-25T18:04:12.153Z,5.30
2017-11-25T18:06:39.658Z,7.90
2017-11-25T18:09:07.928Z,5.53
2017-11-25T18:11:36.201Z,5.93
2017-11-25T18:14:04.444Z,10.60
2017-11-25T18:16:31.915Z,6.83
2017-11-25T18:18:59.393Z,6.30
2017-11-25T18:21:27.643Z,6.13
2017-11-25T18:23:55.134Z,7.20
2017-11-25T18:26:23.390Z,6.00
2017-11-25T18:28:50.883Z,6.77
2017-11-25T18:31:19.117Z,7.10
2017-11-25T18:33:46.597Z,6.90
2017-11-25T18:36:14.081Z,8.30
2017-11-25T18:38:42.315Z,8.00
2017-11-25T18:41:09.804Z,7.37
2017-11-25T18:43:38.048Z,8.80
2017-11-25T18:46:05.552Z,10.70
